sensor_id;sensor_type;location;lat;lon;timestamp;pressure;altitude;pressure_sealevel;temperature;humidity
22582;BME280;47125;48.542;9.052;2023-12-07T00:04:42;96191.81;;;4.96;74.69
22582;BME280;47125;48.542;9.052;2023-12-07T00:14:46;96200.56;;;4.56;76.67
22582;BME280;47125;48.542;9.052;2023-12-07T00:24:49;96205.41;;;4.87;75.03
22582;BME280;47125;48.542;9.052;2023-12-07T00:34:53;96215.75;;;4.82;75.60
22582;BME280;47125;48.542;9.052;2023-12-07T00:44:55;96218.91;;;4.98;74.44
22582;BME280;47125;48.542;9.052;2023-12-07T00:54:59;96216.28;;;4.64;75.27
22582;BME280;47125;48.542;9.052;2023-12-07T01:05:12;96210.50;;;4.54;75.93
22582;BME280;47125;48.542;9.052;2023-12-07T01:15:16;96214.19;;;4.53;75.99
22582;BME280;47125;48.542;9.052;2023-12-07T01:25:18;96223.47;;;4.77;74.17
22582;BME280;47125;48.542;9.052;2023-12-07T01:35:25;96227.25;;;4.95;73.07
22582;BME280;47125;48.542;9.052;2023-12-07T01:45:28;96238.88;;;4.67;73.76
22582;BME280;47125;48.542;9.052;2023-12-07T01:55:32;96246.13;;;4.86;72.92
22582;BME280;47125;48.542;9.052;2023-12-07T02:05:35;96253.47;;;4.90;72.67
22582;BME280;47125;48.542;9.052;2023-12-07T02:15:40;96248.91;;;4.78;73.39
22582;BME280;47125;48.542;9.052;2023-12-07T02:25:44;96254.28;;;4.91;72.33
22582;BME280;47125;48.542;9.052;2023-12-07T02:35:50;96258.72;;;4.84;72.04
22582;BME280;47125;48.542;9.052;2023-12-07T02:45:53;96250.53;;;4.79;70.94
22582;BME280;47125;48.542;9.052;2023-12-07T02:55:56;96247.69;;;4.74;70.79
22582;BME280;47125;48.542;9.052;2023-12-07T03:05:59;96254.25;;;4.84;70.50
22582;BME280;47125;48.542;9.052;2023-12-07T03:16:07;96257.88;;;4.77;70.50
22582;BME280;47125;48.542;9.052;2023-12-07T03:26:11;96252.97;;;4.74;70.42
22582;BME280;47125;48.542;9.052;2023-12-07T03:36:14;96258.38;;;4.66;70.69
22582;BME280;47125;48.542;9.052;2023-12-07T03:46:18;96258.66;;;4.71;70.16
22582;BME280;47125;48.542;9.052;2023-12-07T03:56:25;96259.97;;;4.60;70.74
22582;BME280;47125;48.542;9.052;2023-12-07T04:06:29;96261.28;;;4.43;69.56
22582;BME280;47125;48.542;9.052;2023-12-07T04:16:33;96274.06;;;4.39;69.68
22582;BME280;47125;48.542;9.052;2023-12-07T04:26:36;96284.03;;;4.37;70.23
22582;BME280;47125;48.542;9.052;2023-12-07T04:36:40;96279.66;;;4.23;70.84
22582;BME280;47125;48.542;9.052;2023-12-07T04:46:42;96274.00;;;4.05;70.21
22582;BME280;47125;48.542;9.052;2023-12-07T04:56:46;96276.97;;;4.17;69.75
22582;BME280;47125;48.542;9.052;2023-12-07T05:06:50;96275.38;;;4.01;69.36
22582;BME280;47125;48.542;9.052;2023-12-07T05:16:54;96287.53;;;3.96;69.50
22582;BME280;47125;48.542;9.052;2023-12-07T05:26:57;96296.84;;;3.92;70.85
22582;BME280;47125;48.542;9.052;2023-12-07T05:37:01;96290.47;;;3.86;70.08
22582;BME280;47125;48.542;9.052;2023-12-07T05:47:04;96287.16;;;3.77;69.88
22582;BME280;47125;48.542;9.052;2023-12-07T05:57:07;96282.25;;;3.74;69.79
22582;BME280;47125;48.542;9.052;2023-12-07T06:07:10;96271.06;;;3.72;70.07
22582;BME280;47125;48.542;9.052;2023-12-07T06:17:15;96263.22;;;3.64;69.27
22582;BME280;47125;48.542;9.052;2023-12-07T06:27:17;96264.44;;;3.62;69.89
22582;BME280;47125;48.542;9.052;2023-12-07T06:37:21;96277.47;;;3.49;69.55
22582;BME280;47125;48.542;9.052;2023-12-07T06:47:24;96269.00;;;3.53;69.41
22582;BME280;47125;48.542;9.052;2023-12-07T06:57:28;96285.13;;;2.93;71.55
22582;BME280;47125;48.542;9.052;2023-12-07T07:07:31;96276.91;;;2.59;75.10
22582;BME280;47125;48.542;9.052;2023-12-07T07:17:35;96285.13;;;2.78;74.70
22582;BME280;47125;48.542;9.052;2023-12-07T07:27:38;96283.84;;;2.74;75.41
22582;BME280;47125;48.542;9.052;2023-12-07T07:37:41;96295.78;;;2.85;74.50
22582;BME280;47125;48.542;9.052;2023-12-07T07:47:44;96303.22;;;3.11;73.19
22582;BME280;47125;48.542;9.052;2023-12-07T07:57:48;96295.56;;;3.01;73.27
22582;BME280;47125;48.542;9.052;2023-12-07T08:07:51;96295.38;;;3.17;73.18
22582;BME280;47125;48.542;9.052;2023-12-07T08:17:55;96276.56;;;3.06;73.10
22582;BME280;47125;48.542;9.052;2023-12-07T08:27:58;96286.84;;;3.15;72.22
22582;BME280;47125;48.542;9.052;2023-12-07T08:38:01;96297.25;;;3.38;72.67
22582;BME280;47125;48.542;9.052;2023-12-07T08:48:05;96296.22;;;3.54;73.00
22582;BME280;47125;48.542;9.052;2023-12-07T08:58:09;96282.38;;;3.66;72.77
22582;BME280;47125;48.542;9.052;2023-12-07T09:08:12;96275.38;;;3.80;73.76
22582;BME280;47125;48.542;9.052;2023-12-07T09:18:16;96283.06;;;3.75;74.49
22582;BME280;47125;48.542;9.052;2023-12-07T09:28:18;96271.91;;;3.58;73.74
22582;BME280;47125;48.542;9.052;2023-12-07T09:38:22;96264.41;;;3.41;75.37
22582;BME280;47125;48.542;9.052;2023-12-07T09:48:24;96262.69;;;4.11;72.38
22582;BME280;47125;48.542;9.052;2023-12-07T09:58:28;96247.53;;;4.54;72.57
22582;BME280;47125;48.542;9.052;2023-12-07T10:08:41;96243.13;;;4.95;70.33
22582;BME280;47125;48.542;9.052;2023-12-07T10:18:46;96228.16;;;5.22;70.24
22582;BME280;47125;48.542;9.052;2023-12-07T10:28:51;96204.81;;;5.45;67.37
22582;BME280;47125;48.542;9.052;2023-12-07T10:38:57;96210.63;;;6.08;67.95
22582;BME280;47125;48.542;9.052;2023-12-07T10:49:01;96196.75;;;6.32;66.69
22582;BME280;47125;48.542;9.052;2023-12-07T10:59:08;96176.66;;;6.82;64.30
22582;BME280;47125;48.542;9.052;2023-12-07T11:09:21;96158.09;;;7.27;61.08
22582;BME280;47125;48.542;9.052;2023-12-07T11:19:49;96150.66;;;7.98;58.57
22582;BME280;47125;48.542;9.052;2023-12-07T11:29:53;96140.56;;;8.56;53.74
22582;BME280;47125;48.542;9.052;2023-12-07T11:39:56;96121.38;;;8.83;53.56
22582;BME280;47125;48.542;9.052;2023-12-07T11:50:01;96103.16;;;8.99;51.04
22582;BME280;47125;48.542;9.052;2023-12-07T12:00:07;96086.59;;;9.56;51.46
22582;BME280;47125;48.542;9.052;2023-12-07T12:10:10;96081.84;;;9.28;50.35
22582;BME280;47125;48.542;9.052;2023-12-07T12:20:15;96061.59;;;10.62;48.46
22582;BME280;47125;48.542;9.052;2023-12-07T12:30:19;96038.88;;;11.16;46.83
22582;BME280;47125;48.542;9.052;2023-12-07T12:40:27;96024.28;;;11.06;46.45
22582;BME280;47125;48.542;9.052;2023-12-07T12:50:34;96013.63;;;11.40;47.19
22582;BME280;47125;48.542;9.052;2023-12-07T13:00:39;96007.09;;;11.64;45.08
22582;BME280;47125;48.542;9.052;2023-12-07T13:10:42;96000.97;;;10.62;44.68
22582;BME280;47125;48.542;9.052;2023-12-07T13:20:46;96000.06;;;10.57;44.56
22582;BME280;47125;48.542;9.052;2023-12-07T13:30:56;95995.34;;;10.01;41.91
22582;BME280;47125;48.542;9.052;2023-12-07T13:41:00;95987.50;;;9.94;41.76
22582;BME280;47125;48.542;9.052;2023-12-07T13:51:03;95983.53;;;9.62;41.75
22582;BME280;47125;48.542;9.052;2023-12-07T14:01:07;95974.50;;;9.39;44.29
22582;BME280;47125;48.542;9.052;2023-12-07T14:11:10;95972.94;;;9.09;43.62
22582;BME280;47125;48.542;9.052;2023-12-07T14:21:14;95971.38;;;8.23;43.71
22582;BME280;47125;48.542;9.052;2023-12-07T14:31:34;95974.41;;;8.27;44.36
22582;BME280;47125;48.542;9.052;2023-12-07T14:41:39;95949.53;;;8.21;46.11
22582;BME280;47125;48.542;9.052;2023-12-07T14:51:42;95921.09;;;8.04;45.66
22582;BME280;47125;48.542;9.052;2023-12-07T15:01:46;95916.53;;;7.74;46.09
22582;BME280;47125;48.542;9.052;2023-12-07T15:11:51;95885.88;;;7.36;46.94
22582;BME280;47125;48.542;9.052;2023-12-07T15:21:57;95885.13;;;7.29;47.20
22582;BME280;47125;48.542;9.052;2023-12-07T15:31:59;95889.28;;;7.00;46.44
22582;BME280;47125;48.542;9.052;2023-12-07T15:42:03;95894.50;;;6.57;47.73
22582;BME280;47125;48.542;9.052;2023-12-07T15:52:06;95867.19;;;6.50;46.86
22582;BME280;47125;48.542;9.052;2023-12-07T16:02:10;95841.31;;;6.45;48.97
22582;BME280;47125;48.542;9.052;2023-12-07T16:12:13;95829.97;;;6.32;49.02
22582;BME280;47125;48.542;9.052;2023-12-07T16:22:17;95816.16;;;6.23;49.61
22582;BME280;47125;48.542;9.052;2023-12-07T16:32:19;95802.56;;;6.13;50.25
22582;BME280;47125;48.542;9.052;2023-12-07T16:42:23;95790.69;;;5.84;50.35
22582;BME280;47125;48.542;9.052;2023-12-07T16:52:26;95780.34;;;5.76;51.09
22582;BME280;47125;48.542;9.052;2023-12-07T17:02:30;95785.03;;;5.74;50.61
22582;BME280;47125;48.542;9.052;2023-12-07T17:12:33;95784.66;;;5.71;50.39
22582;BME280;47125;48.542;9.052;2023-12-07T17:22:37;95786.09;;;5.67;51.09
22582;BME280;47125;48.542;9.052;2023-12-07T17:32:39;95774.38;;;5.49;50.35
22582;BME280;47125;48.542;9.052;2023-12-07T17:42:43;95753.69;;;5.27;50.86
22582;BME280;47125;48.542;9.052;2023-12-07T17:52:45;95722.31;;;5.30;50.76
22582;BME280;47125;48.542;9.052;2023-12-07T18:02:50;95720.69;;;5.29;51.54
22582;BME280;47125;48.542;9.052;2023-12-07T18:12:52;95722.97;;;5.19;51.65
22582;BME280;47125;48.542;9.052;2023-12-07T18:22:56;95734.97;;;5.22;51.01
22582;BME280;47125;48.542;9.052;2023-12-07T18:32:59;95712.84;;;5.03;50.94
22582;BME280;47125;48.542;9.052;2023-12-07T18:43:03;95706.28;;;5.19;51.54
22582;BME280;47125;48.542;9.052;2023-12-07T18:53:05;95687.53;;;5.20;52.10
22582;BME280;47125;48.542;9.052;2023-12-07T19:03:09;95689.59;;;5.12;51.92
22582;BME280;47125;48.542;9.052;2023-12-07T19:13:13;95680.22;;;5.16;52.43
22582;BME280;47125;48.542;9.052;2023-12-07T19:23:17;95680.44;;;5.14;52.84
22582;BME280;47125;48.542;9.052;2023-12-07T19:33:19;95683.03;;;4.83;53.14
22582;BME280;47125;48.542;9.052;2023-12-07T19:43:24;95683.50;;;5.11;52.55
22582;BME280;47125;48.542;9.052;2023-12-07T19:53:27;95663.34;;;5.17;53.55
22582;BME280;47125;48.542;9.052;2023-12-07T20:03:31;95630.38;;;5.13;54.02
22582;BME280;47125;48.542;9.052;2023-12-07T20:13:33;95591.44;;;5.20;54.00
22582;BME280;47125;48.542;9.052;2023-12-07T20:23:37;95576.63;;;5.12;53.97
22582;BME280;47125;48.542;9.052;2023-12-07T20:33:43;95569.47;;;5.19;54.16
22582;BME280;47125;48.542;9.052;2023-12-07T20:43:48;95567.84;;;5.18;54.51
22582;BME280;47125;48.542;9.052;2023-12-07T20:53:50;95546.22;;;5.21;54.24
22582;BME280;47125;48.542;9.052;2023-12-07T21:03:54;95522.69;;;5.13;55.25
22582;BME280;47125;48.542;9.052;2023-12-07T21:13:57;95503.94;;;5.15;55.74
22582;BME280;47125;48.542;9.052;2023-12-07T21:24:03;95493.78;;;5.12;55.58
22582;BME280;47125;48.542;9.052;2023-12-07T21:34:06;95488.47;;;5.12;55.56
22582;BME280;47125;48.542;9.052;2023-12-07T21:44:10;95473.84;;;5.09;55.60
22582;BME280;47125;48.542;9.052;2023-12-07T21:54:13;95459.59;;;5.10;56.53
22582;BME280;47125;48.542;9.052;2023-12-07T22:04:17;95448.19;;;5.10;55.77
22582;BME280;47125;48.542;9.052;2023-12-07T22:14:19;95439.00;;;5.12;56.44
22582;BME280;47125;48.542;9.052;2023-12-07T22:24:23;95418.22;;;5.16;55.19
22582;BME280;47125;48.542;9.052;2023-12-07T22:34:26;95413.84;;;5.03;54.38
22582;BME280;47125;48.542;9.052;2023-12-07T22:44:30;95415.56;;;5.16;54.53
22582;BME280;47125;48.542;9.052;2023-12-07T22:54:33;95412.50;;;5.19;54.83
22582;BME280;47125;48.542;9.052;2023-12-07T23:04:37;95398.81;;;5.22;55.04
22582;BME280;47125;48.542;9.052;2023-12-07T23:14:39;95378.66;;;5.21;54.06
22582;BME280;47125;48.542;9.052;2023-12-07T23:24:44;95353.47;;;5.18;55.68
22582;BME280;47125;48.542;9.052;2023-12-07T23:34:46;95333.53;;;5.16;56.95
22582;BME280;47125;48.542;9.052;2023-12-07T23:44:50;95347.25;;;5.06;57.64
22582;BME280;47125;48.542;9.052;2023-12-07T23:54:53;95341.78;;;5.08;57.80
